createdAt,value
2022-09-27T00:01:10.579Z,0.47
2022-09-27T00:03:38.504Z,1.45
2022-09-27T00:06:30.553Z,1.23
2022-09-27T00:08:58.761Z,2.53
2022-09-27T00:11:34.137Z,2.23
2022-09-27T00:14:21.059Z,0.90
2022-09-27T00:16:48.224Z,2.78
2022-09-27T00:19:19.585Z,3.08
2022-09-27T00:21:47.639Z,2.47
2022-09-27T00:24:20.439Z,1.27
2022-09-27T00:26:48.662Z,1.83
2022-09-27T00:29:18.059Z,1.70
2022-09-27T00:31:46.751Z,3.28
2022-09-27T00:34:23.860Z,1.65
2022-09-27T00:36:52.501Z,3.37
2022-09-27T00:39:19.342Z,3.73
2022-09-27T00:41:46.293Z,2.47
2022-09-27T00:44:25.295Z,2.28
2022-09-27T00:47:13.435Z,1.23
2022-09-27T00:50:09.664Z,1.23
2022-09-27T00:53:04.164Z,1.73
2022-09-27T00:55:39.886Z,1.45
2022-09-27T00:58:08.133Z,1.33
2022-09-27T01:00:42.478Z,1.98
2022-09-27T01:03:16.652Z,2.33
2022-09-27T01:05:44.728Z,1.63
2022-09-27T01:08:12.827Z,3.47
2022-09-27T01:11:20.113Z,3.70
2022-09-27T01:14:33.136Z,1.17
2022-09-27T01:17:45.702Z,4.07
2022-09-27T01:20:52.141Z,2.88
2022-09-27T01:24:03.799Z,2.70
2022-09-27T01:26:44.517Z,2.17
2022-09-27T01:29:14.146Z,2.60
2022-09-27T01:32:27.098Z,1.80
2022-09-27T01:35:39.210Z,1.23
2022-09-27T01:38:43.433Z,2.28
2022-09-27T01:41:38.589Z,1.83
2022-09-27T01:44:23.970Z,2.57
2022-09-27T01:47:01.482Z,1.88
2022-09-27T01:50:01.025Z,1.60
2022-09-27T01:52:44.580Z,1.40
2022-09-27T01:55:16.929Z,2.67
2022-09-27T01:57:53.506Z,2.67
2022-09-27T02:00:20.701Z,1.63
2022-09-27T02:02:56.264Z,0.93
2022-09-27T02:05:35.233Z,2.42
2022-09-27T02:08:12.745Z,2.10
2022-09-27T02:10:47.189Z,2.37
2022-09-27T02:13:24.797Z,4.10
2022-09-27T02:16:30.156Z,2.33
2022-09-27T02:20:03.806Z,4.07
2022-09-27T02:22:42.403Z,1.07
2022-09-27T02:25:38.354Z,2.07
2022-09-27T02:28:15.114Z,2.00
2022-09-27T02:30:42.167Z,4.13
2022-09-27T02:33:09.084Z,4.55
2022-09-27T02:35:36.811Z,4.23
2022-09-27T02:38:07.007Z,2.67
2022-09-27T02:40:42.581Z,1.52
2022-09-27T02:43:10.422Z,6.53
2022-09-27T02:46:20.468Z,2.13
2022-09-27T02:49:28.483Z,1.40
2022-09-27T02:52:29.024Z,2.10
2022-09-27T02:55:40.741Z,1.67
2022-09-27T02:58:19.330Z,1.87
2022-09-27T03:00:59.957Z,3.50
2022-09-27T03:03:34.190Z,4.53
2022-09-27T03:06:13.149Z,2.20
2022-09-27T03:08:43.544Z,2.17
2022-09-27T03:11:10.398Z,5.40
2022-09-27T03:14:01.302Z,3.20
2022-09-27T03:16:27.060Z,2.27
2022-09-27T03:18:53.759Z,4.43
2022-09-27T03:21:20.554Z,2.57
2022-09-27T03:23:47.278Z,2.27
2022-09-27T03:26:16.395Z,3.28
2022-09-27T03:28:43.386Z,2.17
2022-09-27T03:31:10.240Z,5.70
2022-09-27T03:33:37.013Z,2.97
2022-09-27T03:36:19.168Z,3.10
2022-09-27T03:38:45.852Z,7.90
2022-09-27T03:41:12.622Z,3.77
2022-09-27T03:43:39.352Z,2.63
2022-09-27T03:46:06.222Z,5.23
2022-09-27T03:48:33.199Z,3.03
2022-09-27T03:50:59.986Z,4.20
2022-09-27T03:53:26.767Z,5.43
2022-09-27T03:55:53.526Z,3.00
2022-09-27T03:58:20.312Z,5.17
2022-09-27T04:00:47.851Z,5.63
2022-09-27T04:03:14.984Z,2.07
2022-09-27T04:05:41.711Z,5.53
2022-09-27T04:08:11.509Z,6.00
2022-09-27T04:10:38.623Z,6.60
2022-09-27T04:13:06.401Z,4.93
2022-09-27T04:15:33.147Z,4.80
2022-09-27T04:17:59.924Z,1.97
2022-09-27T04:20:26.766Z,1.60
2022-09-27T04:22:53.493Z,5.38
2022-09-27T04:25:20.191Z,3.50
2022-09-27T04:27:48.655Z,1.57
2022-09-27T04:30:16.043Z,2.17
2022-09-27T04:32:44.845Z,3.53
2022-09-27T04:35:31.681Z,6.77
2022-09-27T04:37:59.723Z,7.27
2022-09-27T04:40:26.648Z,4.33
2022-09-27T04:42:53.460Z,3.17
2022-09-27T04:45:21.308Z,3.83
2022-09-27T04:47:50.200Z,4.33
2022-09-27T04:50:18.276Z,5.57
2022-09-27T04:52:45.114Z,3.90
2022-09-27T04:55:11.933Z,2.77
2022-09-27T04:57:40.738Z,2.27
2022-09-27T05:00:08.680Z,6.30
2022-09-27T05:02:35.541Z,4.40
2022-09-27T05:05:03.659Z,2.83
2022-09-27T05:07:30.363Z,3.10
2022-09-27T05:09:57.064Z,4.30
2022-09-27T05:12:26.761Z,2.73
2022-09-27T05:14:54.551Z,3.60
2022-09-27T05:17:22.292Z,4.83
2022-09-27T05:19:49.844Z,3.73
2022-09-27T05:22:17.265Z,3.07
2022-09-27T05:24:44.092Z,3.13
2022-09-27T05:27:18.443Z,1.60
2022-09-27T05:29:45.707Z,4.37
2022-09-27T05:32:12.918Z,3.17
2022-09-27T05:34:39.770Z,5.53
2022-09-27T05:37:06.795Z,1.27
2022-09-27T05:39:33.672Z,2.67
2022-09-27T05:42:00.479Z,2.77
2022-09-27T05:44:27.208Z,4.73
2022-09-27T05:46:53.920Z,2.60
2022-09-27T05:49:21.731Z,4.57
2022-09-27T05:51:48.632Z,1.90
2022-09-27T05:54:15.390Z,4.10
2022-09-27T05:56:42.177Z,3.63
2022-09-27T05:59:09.002Z,4.40
2022-09-27T06:01:35.831Z,4.00
2022-09-27T06:04:05.341Z,2.30
2022-09-27T06:06:36.653Z,4.10
2022-09-27T06:09:03.545Z,2.93
2022-09-27T06:11:30.389Z,2.87
2022-09-27T06:13:57.650Z,4.43
2022-09-27T06:16:24.420Z,4.47
2022-09-27T06:18:52.124Z,2.67
2022-09-27T06:21:20.275Z,4.22
2022-09-27T06:23:48.757Z,4.07
2022-09-27T06:26:20.205Z,2.05
2022-09-27T06:28:47.252Z,2.53
2022-09-27T06:31:15.439Z,4.00
2022-09-27T06:33:42.177Z,2.70
2022-09-27T06:36:09.773Z,2.37
2022-09-27T06:38:36.825Z,1.20
2022-09-27T06:41:06.489Z,2.60
2022-09-27T06:43:34.117Z,1.73
2022-09-27T06:46:04.637Z,4.40
2022-09-27T06:48:33.916Z,2.17
2022-09-27T06:51:03.100Z,2.13
2022-09-27T06:53:30.059Z,3.87
2022-09-27T06:56:01.304Z,1.57
2022-09-27T06:58:48.063Z,2.03
2022-09-27T07:01:15.463Z,1.65
2022-09-27T07:03:43.203Z,2.53
2022-09-27T07:06:20.280Z,3.35
2022-09-27T07:08:54.084Z,2.20
2022-09-27T07:11:23.499Z,3.97
2022-09-27T07:13:51.769Z,2.47
2022-09-27T07:16:19.142Z,2.72
2022-09-27T07:18:49.607Z,3.30
2022-09-27T07:21:16.485Z,1.65
2022-09-27T07:23:43.274Z,1.73
2022-09-27T07:26:10.539Z,2.08
2022-09-27T07:28:37.756Z,1.95
2022-09-27T07:31:05.086Z,1.77
2022-09-27T07:33:33.101Z,2.58
2022-09-27T07:36:00.085Z,2.70
2022-09-27T07:38:27.138Z,2.75
2022-09-27T07:40:53.952Z,3.23
2022-09-27T07:43:21.822Z,7.03
2022-09-27T07:45:49.626Z,4.65
2022-09-27T07:48:17.574Z,1.67
2022-09-27T07:50:44.348Z,5.78
2022-09-27T07:53:13.778Z,1.25
2022-09-27T07:55:41.033Z,2.33
2022-09-27T07:58:13.622Z,1.17
2022-09-27T08:00:40.904Z,3.88
2022-09-27T08:03:11.261Z,2.95
2022-09-27T08:05:39.693Z,3.05
2022-09-27T08:08:09.300Z,4.90
2022-09-27T08:10:36.657Z,1.85
2022-09-27T08:13:05.285Z,5.75
2022-09-27T08:15:38.961Z,3.65
2022-09-27T08:18:16.529Z,3.22
2022-09-27T08:20:43.460Z,1.83
2022-09-27T08:23:10.549Z,1.48
2022-09-27T08:25:37.306Z,4.28
2022-09-27T08:28:07.284Z,3.38
2022-09-27T08:30:34.181Z,2.03
2022-09-27T08:33:03.386Z,2.45
2022-09-27T08:35:33.705Z,3.10
2022-09-27T08:38:02.342Z,3.72
2022-09-27T08:40:57.748Z,3.97
2022-09-27T08:44:02.205Z,2.53
2022-09-27T08:46:58.278Z,1.87
2022-09-27T08:50:27.082Z,3.30
2022-09-27T08:53:46.826Z,3.80
2022-09-27T08:56:20.304Z,2.00
2022-09-27T08:59:14.353Z,1.90
2022-09-27T09:01:51.558Z,5.23
2022-09-27T09:04:38.673Z,3.03
2022-09-27T09:07:40.683Z,6.00
2022-09-27T09:11:11.444Z,1.50
2022-09-27T09:14:28.691Z,1.27
2022-09-27T09:17:24.712Z,1.13
2022-09-27T09:20:20.714Z,3.50
2022-09-27T09:22:57.291Z,2.67
2022-09-27T09:25:41.368Z,1.37
2022-09-27T09:28:57.308Z,1.90
2022-09-27T09:32:06.883Z,3.47
2022-09-27T09:34:49.225Z,0.87
2022-09-27T09:37:44.878Z,1.38
2022-09-27T09:40:29.262Z,1.88
2022-09-27T09:43:26.083Z,3.00
2022-09-27T09:46:10.338Z,2.17
2022-09-27T09:48:45.789Z,2.15
2022-09-27T09:51:32.000Z,0.90
2022-09-27T09:54:06.711Z,3.05
2022-09-27T09:57:11.022Z,2.92
2022-09-27T09:59:49.343Z,1.23
2022-09-27T10:02:33.931Z,3.20
2022-09-27T10:05:07.670Z,1.93
2022-09-27T10:07:39.093Z,1.15
2022-09-27T10:10:17.372Z,2.55
2022-09-27T10:12:49.776Z,3.70
2022-09-27T10:15:24.476Z,1.10
2022-09-27T10:17:57.954Z,0.70
2022-09-27T10:20:39.661Z,2.35
2022-09-27T10:23:22.251Z,2.00
2022-09-27T10:25:56.437Z,1.70
2022-09-27T10:28:33.135Z,1.80
2022-09-27T10:31:10.599Z,1.88
2022-09-27T10:34:02.784Z,1.90
2022-09-27T10:36:33.493Z,3.38
2022-09-27T10:39:05.080Z,3.78
2022-09-27T10:41:37.799Z,2.42
2022-09-27T10:44:17.198Z,3.35
2022-09-27T10:46:48.160Z,1.90
2022-09-27T10:49:44.986Z,2.63
2022-09-27T10:52:22.632Z,4.80
2022-09-27T10:55:00.781Z,2.17
2022-09-27T10:57:32.288Z,3.40
2022-09-27T11:00:25.407Z,4.60
2022-09-27T11:03:16.586Z,2.10
2022-09-27T11:05:43.996Z,2.22
2022-09-27T11:08:20.043Z,2.85
2022-09-27T11:11:06.840Z,1.05
2022-09-27T11:13:35.595Z,1.35
2022-09-27T11:16:53.919Z,0.60
2022-09-27T11:19:49.786Z,1.17
2022-09-27T11:22:31.964Z,1.23
2022-09-27T11:25:33.916Z,1.05
2022-09-27T11:28:43.953Z,0.88
2022-09-27T11:31:53.362Z,2.80
2022-09-27T11:34:54.893Z,2.05
2022-09-27T11:37:57.763Z,1.63
2022-09-27T11:40:55.226Z,1.02
2022-09-27T11:44:25.139Z,1.98
2022-09-27T11:47:21.509Z,1.65
2022-09-27T11:50:18.603Z,0.32
2022-09-27T11:53:13.079Z,0.32
2022-09-27T11:56:04.373Z,1.80
2022-09-27T11:58:42.270Z,0.47
2022-09-27T12:01:33.953Z,2.28
2022-09-27T12:04:42.400Z,1.65
2022-09-27T12:07:25.916Z,1.48
2022-09-27T12:10:02.613Z,0.83
2022-09-27T12:12:35.924Z,1.10
2022-09-27T12:15:18.906Z,1.30
2022-09-27T12:17:52.410Z,1.85
2022-09-27T12:20:31.066Z,0.65
2022-09-27T12:23:26.210Z,2.22
2022-09-27T12:26:30.671Z,1.55
2022-09-27T12:29:15.043Z,1.80
2022-09-27T12:32:11.536Z,1.98
2022-09-27T12:35:02.329Z,4.47
2022-09-27T12:37:35.907Z,2.83
2022-09-27T12:40:20.317Z,3.07
2022-09-27T12:43:03.444Z,2.83
2022-09-27T12:45:38.946Z,3.00
2022-09-27T12:48:27.084Z,2.20
2022-09-27T12:51:02.203Z,0.97
2022-09-27T12:53:40.248Z,2.47
2022-09-27T12:56:35.549Z,2.93
2022-09-27T12:59:24.256Z,1.27
2022-09-27T13:02:09.156Z,2.47
2022-09-27T13:04:46.615Z,1.93
2022-09-27T13:07:27.321Z,1.70
2022-09-27T13:10:26.335Z,2.40
2022-09-27T13:12:55.560Z,2.83
2022-09-27T13:15:34.944Z,2.00
2022-09-27T13:18:07.474Z,4.22
2022-09-27T13:20:40.397Z,1.23
2022-09-27T13:23:19.411Z,2.08
2022-09-27T13:26:00.844Z,0.57
2022-09-27T13:28:33.505Z,2.33
2022-09-27T13:31:15.953Z,0.95
2022-09-27T13:34:01.021Z,1.23
2022-09-27T13:36:33.323Z,2.17
2022-09-27T13:39:11.224Z,3.05
2022-09-27T13:41:48.458Z,1.67
2022-09-27T13:44:36.517Z,2.10
2022-09-27T13:47:27.199Z,1.48
2022-09-27T13:50:17.865Z,2.13
2022-09-27T13:53:07.139Z,1.23
2022-09-27T13:55:52.241Z,0.47
2022-09-27T13:58:59.472Z,1.90
2022-09-27T14:02:13.470Z,1.67
2022-09-27T14:04:51.434Z,1.67
2022-09-27T14:07:36.916Z,1.52
2022-09-27T14:10:05.472Z,3.20
2022-09-27T14:12:37.280Z,1.63
2022-09-27T14:15:07.327Z,1.45
2022-09-27T14:17:34.798Z,1.00
2022-09-27T14:20:03.801Z,2.50
2022-09-27T14:22:30.774Z,2.97
2022-09-27T14:24:59.682Z,3.15
2022-09-27T14:27:36.155Z,2.70
2022-09-27T14:30:18.680Z,0.95
2022-09-27T14:33:00.670Z,3.28
2022-09-27T14:35:49.751Z,2.75
2022-09-27T14:38:37.183Z,4.43
2022-09-27T14:41:09.066Z,1.17
2022-09-27T14:43:43.188Z,0.60
2022-09-27T14:46:31.887Z,1.13
2022-09-27T14:48:59.645Z,0.90
2022-09-27T14:51:31.249Z,3.22
2022-09-27T14:54:01.293Z,1.27
2022-09-27T14:56:37.893Z,1.10
2022-09-27T14:59:16.202Z,0.93
2022-09-27T15:02:20.273Z,1.60
2022-09-27T15:04:50.818Z,0.85
2022-09-27T15:07:19.737Z,0.43
2022-09-27T15:09:47.003Z,0.98
2022-09-27T15:12:26.005Z,1.77
2022-09-27T15:14:56.065Z,2.58
2022-09-27T15:17:23.059Z,2.03
2022-09-27T15:20:03.749Z,1.30
2022-09-27T15:22:43.746Z,0.95
2022-09-27T15:25:38.419Z,2.15
2022-09-27T15:28:19.302Z,1.63
2022-09-27T15:30:57.817Z,2.35
2022-09-27T15:33:31.230Z,2.00
2022-09-27T15:36:03.448Z,0.80
2022-09-27T15:38:40.211Z,3.03
2022-09-27T15:41:16.720Z,1.77
2022-09-27T15:43:50.183Z,1.25
2022-09-27T15:46:42.663Z,2.53
2022-09-27T15:49:30.444Z,2.60
2022-09-27T15:52:00.511Z,0.88
2022-09-27T15:54:30.725Z,1.95
2022-09-27T15:57:04.301Z,1.35
2022-09-27T15:59:35.932Z,0.80
2022-09-27T16:02:16.411Z,2.08
2022-09-27T16:04:43.264Z,2.47
2022-09-27T16:07:15.343Z,2.15
2022-09-27T16:09:43.490Z,4.18
2022-09-27T16:12:10.199Z,2.80
2022-09-27T16:14:36.897Z,3.88
2022-09-27T16:17:03.741Z,3.42
2022-09-27T16:19:30.522Z,2.28
2022-09-27T16:21:57.635Z,4.85
2022-09-27T16:24:25.471Z,2.72
2022-09-27T16:26:52.220Z,3.95
2022-09-27T16:29:18.908Z,5.63
2022-09-27T16:31:46.398Z,3.53
2022-09-27T16:34:13.245Z,4.53
2022-09-27T16:36:40.713Z,5.90
2022-09-27T16:39:12.796Z,4.45
2022-09-27T16:41:43.767Z,4.13
2022-09-27T16:44:13.933Z,4.80
2022-09-27T16:47:01.307Z,3.75
2022-09-27T16:49:47.753Z,8.43
2022-09-27T16:52:18.702Z,6.78
2022-09-27T16:54:45.436Z,7.15
2022-09-27T16:57:12.194Z,4.30
2022-09-27T16:59:38.885Z,3.13
2022-09-27T17:02:06.055Z,3.35
2022-09-27T17:04:32.824Z,4.63
2022-09-27T17:07:03.828Z,5.60
2022-09-27T17:09:33.508Z,4.82
2022-09-27T17:12:00.258Z,4.78
2022-09-27T17:14:27.156Z,3.92
2022-09-27T17:16:54.029Z,5.75
2022-09-27T17:19:21.877Z,4.93
2022-09-27T17:21:48.992Z,5.13
2022-09-27T17:24:16.716Z,9.07
2022-09-27T17:26:44.167Z,6.23
2022-09-27T17:29:12.832Z,6.78
2022-09-27T17:31:41.281Z,4.65
2022-09-27T17:34:12.172Z,5.38
2022-09-27T17:36:43.046Z,6.05
2022-09-27T17:39:14.755Z,4.40
2022-09-27T17:41:42.570Z,5.00
2022-09-27T17:44:14.114Z,6.57
2022-09-27T17:46:42.258Z,4.70
2022-09-27T17:49:29.876Z,7.68
2022-09-27T17:51:57.015Z,9.55
2022-09-27T17:54:27.742Z,10.70
2022-09-27T17:56:58.605Z,10.45
2022-09-27T17:59:25.934Z,7.70
2022-09-27T18:01:53.338Z,7.68
2022-09-27T18:04:20.716Z,7.85
2022-09-27T18:06:49.446Z,5.68
2022-09-27T18:09:17.134Z,6.80
2022-09-27T18:11:45.514Z,4.72
2022-09-27T18:14:12.818Z,6.47
2022-09-27T18:16:44.107Z,6.57
2022-09-27T18:19:15.349Z,6.97
2022-09-27T18:21:44.751Z,3.43
2022-09-27T18:24:14.236Z,4.85
2022-09-27T18:26:46.441Z,5.30
2022-09-27T18:29:20.580Z,4.95
2022-09-27T18:31:49.102Z,3.45
2022-09-27T18:34:19.330Z,4.38
2022-09-27T18:36:46.566Z,4.80
2022-09-27T18:39:19.303Z,4.38
2022-09-27T18:41:48.994Z,6.22
2022-09-27T18:44:20.252Z,6.03
2022-09-27T18:46:49.953Z,4.47
2022-09-27T18:49:16.826Z,4.03
2022-09-27T18:51:47.600Z,8.93
2022-09-27T18:54:21.249Z,4.55
2022-09-27T18:56:52.169Z,2.90
2022-09-27T18:59:21.070Z,2.03
2022-09-27T19:01:48.212Z,4.07
2022-09-27T19:04:26.767Z,5.20
2022-09-27T19:06:57.070Z,8.90
2022-09-27T19:09:26.573Z,7.95
2022-09-27T19:11:53.797Z,10.20
2022-09-27T19:14:22.725Z,6.97
2022-09-27T19:16:50.631Z,6.90
2022-09-27T19:19:21.251Z,6.75
2022-09-27T19:21:48.852Z,7.75
2022-09-27T19:24:19.238Z,9.13
2022-09-27T19:26:46.317Z,4.43
2022-09-27T19:29:15.758Z,11.63
2022-09-27T19:31:42.933Z,17.93
2022-09-27T19:34:10.838Z,12.93
2022-09-27T19:36:37.635Z,6.10
2022-09-27T19:39:06.817Z,5.38
2022-09-27T19:41:33.601Z,4.20
2022-09-27T19:44:00.877Z,4.45
2022-09-27T19:46:27.760Z,4.33
2022-09-27T19:49:00.304Z,4.37
2022-09-27T19:51:28.545Z,4.33
2022-09-27T19:53:55.593Z,3.72
2022-09-27T19:56:23.990Z,3.43
2022-09-27T19:58:51.189Z,4.07
2022-09-27T20:01:24.245Z,4.22
2022-09-27T20:03:55.688Z,4.97
2022-09-27T20:06:26.081Z,2.83
2022-09-27T20:08:52.764Z,5.03
2022-09-27T20:11:23.669Z,3.77
2022-09-27T20:13:53.539Z,5.00
2022-09-27T20:16:23.564Z,4.17
2022-09-27T20:18:56.992Z,3.70
2022-09-27T20:21:28.711Z,3.83
2022-09-27T20:23:57.028Z,3.87
2022-09-27T20:26:27.035Z,2.73
2022-09-27T20:28:57.269Z,2.57
2022-09-27T20:31:33.459Z,3.13
2022-09-27T20:34:01.339Z,2.67
2022-09-27T20:36:36.506Z,3.93
2022-09-27T20:39:10.370Z,3.17
2022-09-27T20:41:46.897Z,3.60
2022-09-27T20:44:18.389Z,3.37
2022-09-27T20:46:46.489Z,5.13
2022-09-27T20:49:18.567Z,5.17
2022-09-27T20:51:51.129Z,8.30
2022-09-27T20:54:18.338Z,4.07
2022-09-27T20:56:47.941Z,3.27
2022-09-27T20:59:21.947Z,5.37
2022-09-27T21:01:51.518Z,4.40
2022-09-27T21:04:23.348Z,4.43
2022-09-27T21:06:51.408Z,3.63
2022-09-27T21:09:20.748Z,5.33
2022-09-27T21:11:51.514Z,3.07
2022-09-27T21:14:18.375Z,3.93
2022-09-27T21:16:45.246Z,3.87
2022-09-27T21:19:12.412Z,2.87
2022-09-27T21:21:39.184Z,5.17
2022-09-27T21:24:06.082Z,3.37
2022-09-27T21:26:33.836Z,3.00
2022-09-27T21:29:06.389Z,3.97
2022-09-27T21:31:34.638Z,2.83
2022-09-27T21:34:04.200Z,4.70
2022-09-27T21:36:38.215Z,4.13
2022-09-27T21:39:09.235Z,2.30
2022-09-27T21:41:37.266Z,2.53
2022-09-27T21:44:06.200Z,3.40
2022-09-27T21:46:33.739Z,4.07
2022-09-27T21:49:01.994Z,3.20
2022-09-27T21:51:37.885Z,4.20
2022-09-27T21:54:08.734Z,2.80
2022-09-27T21:56:38.892Z,3.67
2022-09-27T21:59:09.348Z,2.07
2022-09-27T22:01:37.662Z,3.20
2022-09-27T22:04:06.606Z,2.10
2022-09-27T22:06:37.325Z,3.43
2022-09-27T22:09:17.036Z,2.27
2022-09-27T22:11:47.415Z,4.07
2022-09-27T22:14:17.876Z,2.17
2022-09-27T22:16:44.665Z,2.90
2022-09-27T22:19:14.143Z,3.77
2022-09-27T22:21:44.426Z,3.67
2022-09-27T22:24:17.208Z,1.93
2022-09-27T22:27:09.066Z,3.23
2022-09-27T22:29:36.151Z,2.57
2022-09-27T22:32:03.082Z,3.80
2022-09-27T22:34:31.561Z,2.67
2022-09-27T22:37:05.853Z,4.20
2022-09-27T22:39:32.537Z,2.67
2022-09-27T22:41:59.599Z,3.40
2022-09-27T22:44:26.282Z,2.90
2022-09-27T22:46:53.115Z,2.77
2022-09-27T22:49:19.845Z,2.37
2022-09-27T22:51:46.603Z,3.10
2022-09-27T22:54:14.293Z,2.17
2022-09-27T22:56:40.977Z,2.23
2022-09-27T22:59:07.814Z,1.90
2022-09-27T23:01:37.060Z,2.47
2022-09-27T23:04:03.934Z,3.17
2022-09-27T23:06:32.308Z,2.37
2022-09-27T23:08:59.260Z,2.03
2022-09-27T23:11:25.968Z,4.47
2022-09-27T23:13:52.864Z,2.30
2022-09-27T23:16:25.740Z,2.00
2022-09-27T23:18:55.140Z,3.60
2022-09-27T23:21:24.118Z,1.57
2022-09-27T23:23:52.825Z,2.63
2022-09-27T23:26:24.683Z,2.20
2022-09-27T23:28:59.299Z,3.07
2022-09-27T23:31:29.629Z,1.60
2022-09-27T23:33:59.173Z,3.03
2022-09-27T23:36:27.500Z,7.07
2022-09-27T23:39:00.356Z,2.37
2022-09-27T23:41:27.639Z,1.83
2022-09-27T23:43:54.602Z,3.27
2022-09-27T23:46:21.505Z,5.00
2022-09-27T23:48:48.741Z,2.73
2022-09-27T23:51:15.681Z,3.10
2022-09-27T23:53:42.880Z,3.27
2022-09-27T23:56:16.070Z,2.13
2022-09-27T23:58:45.381Z,2.57
